Time;durP1;ratioP1;P1;durP2;ratioP2;P2;SDS_P1;SDS_P2;PMS_P1;PMS_P2;Temp;Humidity;BMP_temperature;BMP_pressure;BME280_temperature;BME280_humidity;BME280_pressure;Samples;Min_cycle;Max_cycle;Signal;HPM_P1;HPM_P2
2023/06/28 00:01:18;;;;;;;;;;;19.00;49.70;;;17.96;50.57;101072.50;12250415;19;19937;-85
2023/06/28 00:05:19;;;;;;;;;;;18.90;49.70;;;17.95;50.68;101079.59;12253861;19;20015;-85
2023/06/28 00:09:21;;;;;;;;;;;18.90;49.70;;;17.84;50.61;101064.63;12251910;19;19939;-85
2023/06/28 00:13:23;;;;;;;;;;;18.90;49.80;;;17.83;50.69;101067.41;12251938;19;19953;-85
2023/06/28 00:17:28;;;;;;;;;;;18.80;49.70;;;17.78;50.83;101070.38;12245599;19;19919;-85
2023/06/28 00:21:30;;;;;;;;;;;18.80;49.70;;;17.50;50.84;101034.78;12247305;19;19926;-85
2023/06/28 00:25:31;;;;;;;;;;;18.80;49.80;;;17.35;50.74;101010.41;12252031;19;19922;-86
2023/06/28 00:29:33;;;;;;;;;;;18.70;49.80;;;17.51;50.67;101033.78;12250832;19;20248;-85
2023/06/28 00:33:34;;;;;;;;;;;18.70;49.80;;;17.76;51.04;101082.03;12248193;19;19915;-85
2023/06/28 00:37:37;;;;;;;;;;;18.70;49.80;;;17.28;51.03;101011.84;12250598;19;19942;-86
2023/06/28 00:41:40;;;;;;;;;;;18.60;49.80;;;17.72;51.02;101083.25;12251107;19;20325;-86
2023/06/28 00:45:41;;;;;;;;;;;18.60;49.90;;;17.31;50.95;101024.81;12251712;19;19947;-85
2023/06/28 00:49:45;;;;;;;;;;;18.60;49.90;;;17.64;51.00;101086.50;12251183;19;19915;-85
2023/06/28 00:53:46;;;;;;;;;;;18.60;49.90;;;17.56;50.91;101073.06;12249742;19;19924;-85
2023/06/28 00:57:48;;;;;;;;;;;18.60;49.80;;;17.48;51.15;101069.19;12253519;19;19914;-85
2023/06/28 01:01:50;;;;;;;;;;;18.50;50.00;;;17.40;51.08;101063.69;12251052;19;19914;-85
2023/06/28 01:05:53;;;;;;;;;;;18.50;49.90;;;17.48;51.06;101081.56;12247923;19;19922;-85
2023/06/28 01:09:58;;;;;;;;;;;18.50;50.00;;;17.52;51.03;101090.09;12241755;19;19915;-85
2023/06/28 01:14:02;;;;;;;;;;;18.50;50.00;;;17.48;51.09;101086.84;12250666;19;19907;-85
2023/06/28 01:18:05;;;;;;;;;;;18.40;50.00;;;17.44;51.18;101088.03;12263621;19;19919;-85
2023/06/28 01:22:09;;;;;;;;;;;18.50;50.10;;;17.42;51.15;101084.69;12259585;19;19919;-85
2023/06/28 01:26:11;;;;;;;;;;;18.50;50.10;;;17.46;51.19;101094.88;12264142;19;19928;-85
2023/06/28 01:30:15;;;;;;;;;;;18.40;50.20;;;17.07;51.20;101008.28;12263186;19;19952;-86
2023/06/28 01:34:17;;;;;;;;;;;18.40;50.30;;;17.44;51.32;101080.13;12259500;19;20337;-85
2023/06/28 01:38:19;;;;;;;;;;;18.40;50.30;;;17.42;51.31;101077.63;12263191;19;19919;-85
2023/06/28 01:42:21;;;;;;;;;;;18.40;50.30;;;17.47;51.39;101090.44;12264057;19;19925;-86
2023/06/28 01:46:23;;;;;;;;;;;18.40;50.40;;;17.46;51.40;101092.25;12260956;19;19925;-85
2023/06/28 01:50:29;;;;;;;;;;;18.40;50.40;;;17.50;51.20;101084.06;12259401;19;19919;-85
2023/06/28 01:54:33;;;;;;;;;;;18.40;50.30;;;17.51;51.39;101098.97;12261796;19;19914;-85
2023/06/28 01:58:34;;;;;;;;;;;18.50;50.60;;;17.50;51.48;101092.88;12263307;19;19923;-85
2023/06/28 02:02:36;;;;;;;;;;;18.50;50.90;;;17.47;51.40;101090.44;12259146;19;19953;-85
2023/06/28 02:06:40;;;;;;;;;;;18.50;50.50;;;17.51;51.31;101098.97;12258577;19;19932;-85
2023/06/28 02:10:43;;;;;;;;;;;18.40;50.70;;;17.20;51.32;101035.34;12255604;19;20333;-85
2023/06/28 02:14:45;;;;;;;;;;;18.50;50.50;;;17.46;51.47;101062.38;12255148;19;19922;-86
2023/06/28 02:18:47;;;;;;;;;;;18.50;50.60;;;17.46;51.35;101063.19;12260483;19;19941;-85
2023/06/28 02:22:51;;;;;;;;;;;18.50;50.60;;;17.47;51.32;101056.09;12255880;19;19923;-85
2023/06/28 02:26:53;;;;;;;;;;;18.50;50.70;;;17.48;51.46;101066.56;12258561;19;19915;-85
2023/06/28 02:30:55;;;;;;;;;;;18.50;50.50;;;17.52;51.61;101067.16;12256885;19;19922;-85
2023/06/28 02:34:59;;;;;;;;;;;18.50;50.50;;;17.49;51.68;101059.47;12258398;19;20370;-86
2023/06/28 02:39:00;;;;;;;;;;;18.50;50.60;;;17.50;51.44;101062.94;12257756;19;19919;-85
2023/06/28 02:43:02;;;;;;;;;;;18.60;50.60;;;17.44;51.48;101057.22;12257669;19;19951;-86
2023/06/28 02:47:04;;;;;;;;;;;18.60;50.60;;;17.48;51.72;101065.72;12257850;19;20007;-85
2023/06/28 02:51:06;;;;;;;;;;;18.50;50.50;;;17.59;51.45;101071.00;12255081;19;20253;-85
2023/06/28 02:55:09;;;;;;;;;;;18.60;50.50;;;17.59;51.61;101078.91;12258197;19;19914;-86
2023/06/28 02:59:11;;;;;;;;;;;18.60;50.50;;;17.54;51.60;101070.50;12257537;19;19915;-86
2023/06/28 03:03:13;;;;;;;;;;;18.60;50.50;;;17.37;51.60;101052.53;12256109;19;19919;-85
2023/06/28 03:07:18;;;;;;;;;;;18.60;50.50;;;17.44;51.68;101070.44;12256968;19;20241;-85
2023/06/28 03:11:20;;;;;;;;;;;18.60;50.40;;;17.31;51.49;101050.34;12252752;19;20401;-85
2023/06/28 03:15:22;;;;;;;;;;;18.50;50.50;;;17.41;51.71;101064.53;12256506;19;19919;-85
2023/06/28 03:19:24;;;;;;;;;;;18.50;50.80;;;17.58;51.85;101097.50;12256519;19;19915;-85
2023/06/28 03:23:25;;;;;;;;;;;18.60;50.60;;;17.50;51.73;101100.78;12252003;19;19919;-86
2023/06/28 03:27:27;;;;;;;;;;;18.60;50.60;;;17.54;51.59;101102.22;12254178;19;19926;-86
2023/06/28 03:31:31;;;;;;;;;;;18.60;50.60;;;17.55;51.70;101113.59;12254478;19;19915;-86
2023/06/28 03:35:34;;;;;;;;;;;18.50;50.60;;;17.58;51.80;101103.66;12254031;19;20345;-84
2023/06/28 03:39:36;;;;;;;;;;;18.60;50.60;;;17.25;51.77;101043.75;12254287;19;19921;-84
2023/06/28 03:43:59;;;;;;;;;;;18.60;50.70;;;17.61;51.62;101103.41;12254322;19;19925;-84
2023/06/28 03:48:04;;;;;;;;;;;18.60;50.70;;;17.53;51.94;101089.16;12254402;19;19919;-84
2023/06/28 03:52:06;;;;;;;;;;;18.60;50.70;;;17.61;51.87;101098.13;12247157;19;19914;-84
2023/06/28 03:56:08;;;;;;;;;;;18.60;50.70;;;17.59;51.67;101099.22;12254497;19;20329;-84
2023/06/28 04:00:12;;;;;;;;;;;18.60;50.70;;;17.58;51.83;101105.44;12256901;19;19910;-85
2023/06/28 04:04:19;;;;;;;;;;;18.60;50.50;;;17.38;51.85;101067.41;12251855;19;19915;-84
2023/06/28 04:08:20;;;;;;;;;;;18.60;50.70;;;17.59;52.03;101088.66;12252409;19;20397;-85
2023/06/28 04:12:22;;;;;;;;;;;18.60;50.70;;;17.60;51.98;101095.59;12252569;19;20012;-84
2023/06/28 04:16:23;;;;;;;;;;;18.60;50.70;;;17.54;51.74;101090.81;12251240;19;20311;-86
2023/06/28 04:20:25;;;;;;;;;;;18.60;50.80;;;17.69;52.08;101124.78;12251784;19;19933;-85
2023/06/28 04:24:26;;;;;;;;;;;18.60;50.90;;;17.70;51.80;101122.97;12250262;19;19911;-85
2023/06/28 04:28:28;;;;;;;;;;;18.60;50.80;;;17.67;51.78;101117.94;12251351;19;20379;-83
2023/06/28 04:32:30;;;;;;;;;;;18.70;50.90;;;17.73;51.82;101125.38;12238941;19;19915;-82
2023/06/28 04:36:31;;;;;;;;;;;18.70;50.70;;;17.65;51.81;101111.94;12248409;19;19982;-82
2023/06/28 04:40:33;;;;;;;;;;;18.80;50.80;;;17.68;52.26;101112.50;12247093;19;19976;-82
2023/06/28 04:44:36;;;;;;;;;;;18.80;50.90;;;17.77;51.87;101131.25;12243818;19;19919;-83
2023/06/28 04:48:39;;;;;;;;;;;18.80;50.90;;;17.79;52.00;101126.72;12245593;19;19947;-83
2023/06/28 04:52:40;;;;;;;;;;;18.80;50.90;;;17.82;52.18;101126.47;12244083;19;19919;-82
2023/06/28 04:56:44;;;;;;;;;;;18.80;50.90;;;17.62;52.06;101105.09;12247910;19;19919;-83
2023/06/28 05:00:45;;;;;;;;;;;18.90;50.90;;;17.77;52.00;101133.88;12247464;19;20310;-82
2023/06/28 05:04:47;;;;;;;;;;;18.90;51.80;;;17.75;52.29;101120.81;12244343;19;20329;-82
2023/06/28 05:08:48;;;;;;;;;;;18.80;51.00;;;17.86;52.12;101144.59;12247059;19;19927;-82
2023/06/28 05:12:51;;;;;;;;;;;18.90;51.10;;;17.92;52.15;101146.75;12243222;19;20656;-83
2023/06/28 05:16:53;;;;;;;;;;;18.90;50.80;;;17.90;52.06;101145.19;12243617;19;19925;-81
2023/06/28 05:20:54;;;;;;;;;;;18.90;50.80;;;17.96;52.29;101147.38;12246241;19;19929;-82
2023/06/28 05:24:56;;;;;;;;;;;18.90;51.00;;;17.86;52.31;101133.19;12244599;19;19926;-82
2023/06/28 05:28:58;;;;;;;;;;;19.00;50.90;;;17.86;52.28;101122.63;12245914;19;19918;-82
2023/06/28 05:33:02;;;;;;;;;;;19.00;51.60;;;18.02;52.15;101138.94;12243939;19;20341;-82
2023/06/28 05:37:04;;;;;;;;;;;19.00;51.30;;;18.11;52.34;101142.66;12245246;19;19940;-82
2023/06/28 05:41:15;;;;;;;;;;;19.10;51.50;;;18.04;52.11;101121.16;12244427;19;19939;-83
2023/06/28 05:45:16;;;;;;;;;;;19.10;51.50;;;18.15;52.20;101144.09;12231881;19;19939;-84
2023/06/28 05:49:19;;;;;;;;;;;19.20;51.30;;;18.14;52.40;101134.47;12242449;19;19907;-83
2023/06/28 05:53:20;;;;;;;;;;;19.20;51.30;;;18.27;52.19;101148.38;12241761;19;20862;-82
2023/06/28 05:57:22;;;;;;;;;;;19.30;51.20;;;18.32;52.45;101150.66;12243551;19;20366;-82
2023/06/28 06:01:24;;;;;;;;;;;19.30;51.10;;;18.33;52.21;101133.81;12250434;19;20325;-82
2023/06/28 06:05:25;;;;;;;;;;;19.40;51.70;;;18.35;52.30;101135.38;12257880;19;19922;-82
2023/06/28 06:09:29;;;;;;;;;;;19.40;51.20;;;18.20;52.20;101114.63;12260969;19;19919;-82
2023/06/28 06:13:31;;;;;;;;;;;19.40;51.10;;;18.35;52.30;101139.81;12255351;19;19919;-82
2023/06/28 06:17:32;;;;;;;;;;;19.50;51.20;;;18.40;52.14;101139.47;12254772;19;19919;-82
2023/06/28 06:21:34;;;;;;;;;;;19.50;51.20;;;18.51;52.42;101145.53;12252806;19;19978;-82
2023/06/28 06:25:36;;;;;;;;;;;19.60;51.10;;;18.51;52.22;101145.53;12256503;19;19952;-82
2023/06/28 06:29:37;;;;;;;;;;;19.60;51.10;;;18.51;52.31;101136.78;12248709;19;19934;-82
2023/06/28 06:33:39;;;;;;;;;;;19.60;51.00;;;18.37;52.24;101106.16;12247476;19;20330;-83
2023/06/28 06:37:41;;;;;;;;;;;19.60;51.30;;;18.57;52.26;101134.44;12250741;19;19919;-84
2023/06/28 06:41:43;;;;;;;;;;;19.70;51.30;;;18.73;52.55;101138.47;12252085;19;19938;-83
2023/06/28 06:45:46;;;;;;;;;;;19.80;51.40;;;18.83;52.46;101147.38;12250766;19;19975;-82
2023/06/28 06:49:51;;;;;;;;;;;19.80;51.20;;;18.74;52.52;101109.28;12246695;19;20312;-83
2023/06/28 06:53:53;;;;;;;;;;;20.00;51.30;;;18.97;52.60;101128.50;12258371;19;19923;-83
2023/06/28 06:57:54;;;;;;;;;;;20.10;51.40;;;19.20;52.58;101146.94;12260284;19;19979;-82
2023/06/28 07:01:56;;;;;;;;;;;20.20;51.40;;;19.33;52.39;101144.06;12260986;19;20337;-82
2023/06/28 07:05:59;;;;;;;;;;;20.30;51.20;;;19.39;52.50;101154.97;12258746;19;19943;-82
2023/06/28 07:10:00;;;;;;;;;;;20.40;51.00;;;19.43;52.53;101158.19;12260785;19;19922;-82
2023/06/28 07:14:02;;;;;;;;;;;20.50;50.90;;;19.55;52.22;101158.94;12256800;19;19923;-82
2023/06/28 07:18:04;;;;;;;;;;;20.60;51.00;;;19.65;52.48;101159.81;12259409;19;20331;-83
2023/06/28 07:22:05;;;;;;;;;;;20.70;50.90;;;19.68;52.39;101154.28;12256263;19;19927;-83
2023/06/28 07:26:07;;;;;;;;;;;20.80;50.80;;;19.74;52.23;101155.56;12258474;19;19919;-83
2023/06/28 07:30:09;;;;;;;;;;;20.80;50.60;;;19.87;52.35;101172.94;12259434;19;19931;-83
2023/06/28 07:34:11;;;;;;;;;;;20.90;50.60;;;19.93;52.34;101174.22;12256657;19;19923;-83
2023/06/28 07:38:12;;;;;;;;;;;21.00;50.50;;;19.94;52.31;101161.78;12257729;19;19942;-83
2023/06/28 07:42:14;;;;;;;;;;;21.10;50.70;;;20.17;52.29;101179.16;12256968;19;19925;-81
2023/06/28 07:46:16;;;;;;;;;;;21.20;50.50;;;20.32;52.31;101179.59;12256297;19;19927;-82
2023/06/28 07:50:20;;;;;;;;;;;21.40;49.80;;;20.38;52.43;101191.47;12256945;19;19922;-82
2023/06/28 07:54:23;;;;;;;;;;;21.50;49.60;;;20.47;52.12;101185.38;12255281;19;19938;-82
2023/06/28 07:58:24;;;;;;;;;;;21.60;49.70;;;20.64;52.43;101190.00;12256948;19;19907;-82
2023/06/28 08:02:26;;;;;;;;;;;21.70;49.30;;;20.81;52.11;101183.16;12256689;19;19965;-83
2023/06/28 08:06:28;;;;;;;;;;;21.80;48.90;;;21.00;52.44;101190.28;12255899;19;19975;-83
2023/06/28 08:10:30;;;;;;;;;;;22.00;49.00;;;21.15;52.42;101178.25;12254025;19;19911;-83
2023/06/28 08:14:31;;;;;;;;;;;22.20;49.50;;;21.27;52.06;101172.78;12251116;19;20341;-83
2023/06/28 08:18:34;;;;;;;;;;;22.40;47.90;;;21.51;52.41;101174.97;12252304;19;20333;-82
2023/06/28 08:22:36;;;;;;;;;;;22.50;49.00;;;21.59;52.05;101175.09;12246941;19;19927;-81
2023/06/28 08:26:37;;;;;;;;;;;22.60;48.70;;;21.67;52.00;101179.69;12248397;19;19999;-80
2023/06/28 08:30:39;;;;;;;;;;;22.80;48.80;;;21.70;51.68;101176.72;12238889;19;19955;-81
2023/06/28 08:34:40;;;;;;;;;;;22.80;49.00;;;21.76;51.96;101189.41;12239250;19;19998;-81
2023/06/28 08:38:42;;;;;;;;;;;22.90;48.30;;;21.77;51.83;101185.81;12242956;19;20368;-81
2023/06/28 08:42:45;;;;;;;;;;;22.90;48.50;;;21.75;51.78;101182.44;12244667;19;19918;-81
2023/06/28 08:46:48;;;;;;;;;;;23.00;47.80;;;21.64;51.58;101176.31;12244010;19;20318;-81
2023/06/28 08:50:50;;;;;;;;;;;22.90;48.30;;;21.75;51.82;101190.41;12244816;19;19923;-81
2023/06/28 08:54:52;;;;;;;;;;;22.90;48.40;;;21.73;51.82;101182.56;12242718;19;19926;-81
2023/06/28 08:58:56;;;;;;;;;;;22.90;48.00;;;21.81;51.63;101187.16;12244225;19;19943;-81
2023/06/28 09:02:58;;;;;;;;;;;22.90;48.60;;;21.91;51.43;101200.44;12241198;19;19919;-81
2023/06/28 09:06:59;;;;;;;;;;;22.90;48.40;;;21.90;51.43;101198.75;12245460;19;19918;-81
2023/06/28 09:11:02;;;;;;;;;;;22.90;48.30;;;21.88;51.54;101198.91;12241318;19;20341;-81
2023/06/28 09:15:03;;;;;;;;;;;23.00;47.90;;;21.76;51.46;101184.94;12243375;19;19954;-81
2023/06/28 09:19:05;;;;;;;;;;;22.90;47.90;;;21.83;51.26;101204.66;12238113;19;20325;-82
2023/06/28 09:23:06;;;;;;;;;;;22.90;48.30;;;21.85;51.63;101199.19;12243237;19;20234;-81
2023/06/28 09:27:08;;;;;;;;;;;22.90;48.40;;;21.92;51.51;101197.59;12244777;19;19929;-81
2023/06/28 09:31:10;;;;;;;;;;;22.90;48.30;;;21.91;51.02;101187.13;12242944;19;20312;-82
2023/06/28 09:35:12;;;;;;;;;;;23.00;48.40;;;22.02;51.17;101198.41;12245599;19;20045;-80
2023/06/28 09:39:13;;;;;;;;;;;23.00;48.50;;;22.09;51.28;101206.66;12254500;19;19939;-80
2023/06/28 09:43:15;;;;;;;;;;;23.10;48.40;;;22.16;51.46;101199.72;12251542;19;19918;-80
2023/06/28 09:47:16;;;;;;;;;;;23.20;48.30;;;22.28;51.28;101216.38;12256661;19;19934;-80
2023/06/28 09:51:18;;;;;;;;;;;23.30;48.00;;;22.29;50.89;101210.06;12249856;19;20368;-82
2023/06/28 09:55:19;;;;;;;;;;;23.30;47.80;;;22.36;51.01;101202.31;12254853;19;19929;-80
2023/06/28 09:59:23;;;;;;;;;;;23.40;48.10;;;22.36;50.96;101194.31;12254133;19;19983;-81
2023/06/28 10:03:26;;;;;;;;;;;23.40;48.10;;;22.42;51.15;101210.53;12252154;19;19918;-80
2023/06/28 10:07:28;;;;;;;;;;;23.50;47.40;;;22.51;50.96;101212.28;12250980;19;19919;-81
2023/06/28 10:11:33;;;;;;;;;;;23.60;48.00;;;22.56;51.12;101216.34;12251376;19;19943;-81
2023/06/28 10:15:51;;;;;;;;;;;23.60;47.50;;;22.57;51.09;101194.03;12252788;19;19919;-81
2023/06/28 10:19:53;;;;;;;;;;;23.60;47.60;;;22.67;50.62;101206.28;12254192;19;20003;-81
2023/06/28 10:23:55;;;;;;;;;;;23.70;47.90;;;22.72;50.62;101203.19;12251095;19;20234;-81
2023/06/28 10:27:57;;;;;;;;;;;23.70;47.00;;;22.66;50.98;101193.16;12255593;19;19922;-81
2023/06/28 10:31:59;;;;;;;;;;;23.70;47.30;;;22.76;50.87;101193.88;12247853;19;20318;-82
2023/06/28 10:36:01;;;;;;;;;;;23.80;47.70;;;22.90;50.60;101205.81;12251751;19;19919;-80
2023/06/28 10:40:05;;;;;;;;;;;23.90;47.60;;;22.98;50.87;101195.28;12248374;19;19927;-81
2023/06/28 10:44:07;;;;;;;;;;;24.00;47.30;;;23.11;50.50;101185.03;12249679;19;19926;-81
2023/06/28 10:48:11;;;;;;;;;;;24.10;47.60;;;23.24;50.87;101199.81;12254472;19;19925;-81
2023/06/28 10:52:14;;;;;;;;;;;24.20;46.50;;;23.35;50.60;101208.38;12247088;19;20316;-81
2023/06/28 10:56:18;;;;;;;;;;;24.30;46.20;;;23.40;50.67;101210.56;12248920;19;19939;-81
2023/06/28 11:00:42;;;;;;;;;;;24.40;46.80;;;23.45;50.32;101212.78;12249711;19;19943;-81
2023/06/28 11:04:51;;;;;;;;;;;24.40;46.50;;;23.38;50.15;101204.56;12248537;19;20583;-81
2023/06/28 11:08:53;;;;;;;;;;;24.50;47.00;;;23.44;50.24;101213.75;12252321;19;19984;-82
2023/06/28 11:13:00;;;;;;;;;;;24.50;46.90;;;23.50;50.29;101218.47;12248618;19;19936;-81
2023/06/28 11:17:10;;;;;;;;;;;24.50;47.10;;;23.54;50.04;101220.66;12251872;19;19930;-80
2023/06/28 11:21:15;;;;;;;;;;;24.60;46.60;;;23.51;50.02;101201.47;12249059;19;19943;-81
2023/06/28 11:25:16;;;;;;;;;;;24.60;47.20;;;23.61;50.23;101210.22;12248224;19;19929;-81
2023/06/28 11:29:19;;;;;;;;;;;24.60;47.60;;;23.62;50.05;101218.03;12247288;19;20332;-81
2023/06/28 11:33:22;;;;;;;;;;;24.70;47.10;;;23.66;50.11;101218.56;12243970;19;21299;-81
2023/06/28 11:37:26;;;;;;;;;;;24.70;45.10;;;23.72;49.87;101217.13;12245134;19;19922;-82
2023/06/28 11:41:32;;;;;;;;;;;24.70;46.10;;;23.73;49.71;101208.97;12244567;19;20015;-81
2023/06/28 11:45:35;;;;;;;;;;;24.70;46.20;;;23.75;50.10;101209.63;12242955;19;19927;-81
2023/06/28 11:49:37;;;;;;;;;;;24.80;47.30;;;23.84;49.69;101213.19;12246439;19;20257;-80
2023/06/28 11:53:39;;;;;;;;;;;24.80;46.00;;;23.90;49.43;101204.56;12242312;19;20003;-80
2023/06/28 11:57:47;;;;;;;;;;;24.90;46.50;;;24.07;49.72;101211.63;12244590;19;19923;-80
2023/06/28 12:02:06;;;;;;;;;;;25.00;45.10;;;24.20;49.63;101205.84;12247096;19;19911;-80
2023/06/28 12:06:12;;;;;;;;;;;25.10;45.40;;;24.29;49.46;101204.00;12246196;19;19926;-80
2023/06/28 12:10:14;;;;;;;;;;;25.20;46.20;;;24.42;49.63;101208.91;12243521;19;20356;-81
2023/06/28 12:14:16;;;;;;;;;;;25.30;46.60;;;24.51;49.36;101197.25;12238847;19;19931;-80
2023/06/28 12:18:17;;;;;;;;;;;25.40;45.70;;;24.60;49.49;101206.09;12244991;19;20694;-80
2023/06/28 12:22:19;;;;;;;;;;;25.60;46.50;;;24.67;49.21;101201.78;12240415;19;20332;-80
2023/06/28 12:26:24;;;;;;;;;;;25.60;46.00;;;24.65;49.70;101196.59;12245025;19;20238;-80
2023/06/28 12:30:26;;;;;;;;;;;25.70;45.70;;;24.72;49.53;101194.94;12244504;19;19975;-80
2023/06/28 12:34:29;;;;;;;;;;;25.70;45.60;;;24.83;49.54;101215.16;12239502;19;20268;-80
2023/06/28 12:38:30;;;;;;;;;;;25.80;45.90;;;24.82;49.38;101188.63;12244786;19;19990;-81
2023/06/28 12:42:32;;;;;;;;;;;25.90;46.20;;;24.98;49.48;101204.66;12247020;19;19926;-81
2023/06/28 12:46:33;;;;;;;;;;;26.00;46.00;;;25.09;49.53;101206.97;12245185;19;19923;-81
2023/06/28 12:50:35;;;;;;;;;;;26.00;46.20;;;25.16;49.20;101202.66;12241710;19;20333;-82
2023/06/28 12:54:37;;;;;;;;;;;26.20;45.90;;;25.30;48.89;101203.81;12240588;19;19943;-82
2023/06/28 12:58:38;;;;;;;;;;;26.30;45.10;;;25.35;49.18;101201.44;12242445;19;19927;-81
2023/06/28 13:02:40;;;;;;;;;;;26.30;44.70;;;25.37;48.88;101206.63;12242125;19;19918;-82
2023/06/28 13:06:41;;;;;;;;;;;26.40;45.10;;;25.37;48.85;101203.97;12242956;19;19927;-81
2023/06/28 13:10:42;;;;;;;;;;;26.40;45.00;;;25.39;48.55;101197.44;12240430;19;19921;-81
2023/06/28 13:14:44;;;;;;;;;;;26.40;45.00;;;25.43;48.73;101187.22;12230977;19;19986;-82
2023/06/28 13:18:46;;;;;;;;;;;26.50;45.50;;;25.56;48.93;101214.28;12243231;19;19919;-81
2023/06/28 13:22:47;;;;;;;;;;;26.50;45.00;;;25.62;48.40;101194.03;12241427;19;19922;-82
2023/06/28 13:26:51;;;;;;;;;;;26.60;45.10;;;25.63;48.62;101195.72;12242468;19;19907;-81
2023/06/28 13:30:52;;;;;;;;;;;26.70;45.30;;;25.74;48.30;101200.69;12240150;19;19978;-82
2023/06/28 13:34:54;;;;;;;;;;;26.70;44.80;;;25.79;48.68;101198.34;12240709;19;19927;-83
2023/06/28 13:38:56;;;;;;;;;;;26.80;42.40;;;25.94;48.65;101205.66;12242068;19;19918;-82
2023/06/28 13:42:58;;;;;;;;;;;26.90;45.50;;;26.00;48.41;101195.09;12239551;19;19918;-82
2023/06/28 13:46:59;;;;;;;;;;;26.90;45.70;;;26.05;48.51;101198.06;12239807;19;19923;-82
2023/06/28 13:51:01;;;;;;;;;;;27.00;45.10;;;26.08;48.45;101188.88;12238773;19;19922;-82
2023/06/28 13:55:04;;;;;;;;;;;27.10;44.30;;;26.17;48.31;101200.38;12240256;19;20319;-82
2023/06/28 13:59:06;;;;;;;;;;;27.10;44.90;;;26.16;48.23;101196.84;12242204;19;19926;-81
2023/06/28 14:03:08;;;;;;;;;;;27.10;44.20;;;26.18;47.67;101202.88;12235807;19;19931;-82
2023/06/28 14:07:09;;;;;;;;;;;27.10;44.10;;;26.09;47.67;101182.53;12242442;19;19932;-81
2023/06/28 14:11:11;;;;;;;;;;;27.10;45.10;;;26.22;47.82;101206.03;12237145;19;19956;-82
2023/06/28 14:15:13;;;;;;;;;;;27.20;45.00;;;26.16;47.96;101190.66;12236017;19;19926;-82
2023/06/28 14:19:14;;;;;;;;;;;27.20;44.80;;;26.20;47.59;101197.34;12234824;19;19918;-82
2023/06/28 14:23:16;;;;;;;;;;;27.10;44.60;;;26.20;47.53;101197.34;12245572;19;19931;-81
2023/06/28 14:27:17;;;;;;;;;;;27.10;45.00;;;26.19;47.85;101176.94;12253183;19;19921;-82
2023/06/28 14:31:19;;;;;;;;;;;27.10;44.80;;;26.32;47.93;101187.06;12248749;19;19929;-81
2023/06/28 14:35:21;;;;;;;;;;;27.20;45.20;;;26.45;47.45;101187.31;12249872;19;20010;-82
2023/06/28 14:39:22;;;;;;;;;;;27.30;45.20;;;26.53;47.48;101197.19;12252824;19;19938;-82
2023/06/28 14:43:24;;;;;;;;;;;27.40;45.10;;;26.48;47.48;101185.13;12248414;19;19923;-86
2023/06/28 14:47:25;;;;;;;;;;;27.40;45.00;;;26.53;47.14;101189.16;12250824;19;19907;-85
2023/06/28 14:51:27;;;;;;;;;;;27.40;44.90;;;26.34;47.32;101161.78;12247932;19;19926;-85
2023/06/28 14:55:28;;;;;;;;;;;27.40;44.90;;;26.44;47.19;101180.31;12250395;19;19918;-85
2023/06/28 14:59:30;;;;;;;;;;;27.40;44.50;;;26.50;47.18;101182.28;12245492;19;19986;-85
2023/06/28 15:03:31;;;;;;;;;;;27.40;44.70;;;26.54;47.17;101185.44;12250144;19;20278;-86
2023/06/28 15:07:33;;;;;;;;;;;27.40;44.70;;;26.42;47.21;101171.63;12247548;19;19914;-85
2023/06/28 15:11:34;;;;;;;;;;;27.40;44.70;;;26.56;46.85;101189.63;12250066;19;20266;-85
2023/06/28 15:15:35;;;;;;;;;;;27.40;44.70;;;26.57;46.87;101193.97;12242397;19;19970;-85
2023/06/28 15:19:37;;;;;;;;;;;27.40;43.90;;;26.57;46.89;101185.09;12248025;19;19918;-85
2023/06/28 15:23:38;;;;;;;;;;;27.50;44.70;;;26.60;46.58;101198.97;12245647;19;19925;-85
2023/06/28 15:27:40;;;;;;;;;;;27.50;44.60;;;26.55;47.09;101195.16;12251102;19;19925;-85
2023/06/28 15:31:41;;;;;;;;;;;27.40;44.60;;;26.52;46.62;101196.34;12246163;19;19938;-84
2023/06/28 15:35:43;;;;;;;;;;;27.50;44.60;;;26.48;46.41;101186.97;12248430;19;19918;-85
2023/06/28 15:39:45;;;;;;;;;;;27.40;44.60;;;26.40;46.35;101192.38;12249629;19;21848;-85
2023/06/28 15:43:46;;;;;;;;;;;27.30;44.60;;;26.48;46.35;101203.03;12246794;19;20266;-85
2023/06/28 15:47:47;;;;;;;;;;;27.30;44.50;;;26.40;46.48;101193.19;12250522;19;19915;-85
2023/06/28 15:51:49;;;;;;;;;;;27.30;44.50;;;26.42;46.55;101193.03;12246181;19;19942;-85
2023/06/28 15:55:50;;;;;;;;;;;27.30;44.50;;;26.42;46.18;101198.41;12248856;19;19911;-85
2023/06/28 15:59:51;;;;;;;;;;;27.20;43.80;;;26.37;46.60;101188.22;12250117;19;19919;-85
2023/06/28 16:03:53;;;;;;;;;;;27.20;44.20;;;26.38;46.64;101192.56;12245982;19;19919;-85
2023/06/28 16:07:54;;;;;;;;;;;27.20;44.50;;;26.33;46.14;101178.88;12248743;19;19918;-85
2023/06/28 16:11:55;;;;;;;;;;;27.20;44.10;;;26.36;46.14;101189.22;12247811;19;19943;-85
2023/06/28 16:16:00;;;;;;;;;;;27.20;44.30;;;26.38;46.45;101197.94;12243476;19;19942;-86
2023/06/28 16:20:03;;;;;;;;;;;27.20;44.50;;;26.30;46.04;101181.06;12246702;19;20589;-86
2023/06/28 16:24:05;;;;;;;;;;;27.20;44.50;;;26.34;46.35;101196.59;12242540;19;19921;-85
2023/06/28 16:28:06;;;;;;;;;;;27.20;44.30;;;26.29;46.08;101182.91;12246382;19;19919;-85
2023/06/28 16:32:08;;;;;;;;;;;27.20;44.40;;;26.26;46.20;101188.63;12239958;19;19920;-84
2023/06/28 16:36:09;;;;;;;;;;;27.10;44.30;;;26.16;46.17;101172.75;12244657;19;20269;-85
2023/06/28 16:40:10;;;;;;;;;;;27.10;43.90;;;26.24;45.83;101195.97;12244260;19;19914;-85
2023/06/28 16:44:12;;;;;;;;;;;27.00;44.20;;;26.01;45.95;101153.94;12242602;19;19922;-85
2023/06/28 16:48:13;;;;;;;;;;;27.00;44.20;;;26.21;45.95;101197.16;12244484;19;19915;-83
2023/06/28 16:52:14;;;;;;;;;;;27.00;44.20;;;26.16;45.65;101193.34;12241732;19;19923;-85
2023/06/28 16:56:16;;;;;;;;;;;27.00;44.30;;;26.21;46.10;101205.19;12246346;19;19919;-85
2023/06/28 17:00:17;;;;;;;;;;;27.00;44.20;;;26.19;45.81;101199.22;12243983;19;19919;-85
2023/06/28 17:04:19;;;;;;;;;;;26.90;44.00;;;26.13;45.92;101185.66;12240977;19;20350;-85
2023/06/28 17:08:22;;;;;;;;;;;26.90;44.10;;;26.13;45.83;101191.84;12242116;19;20022;-85
2023/06/28 17:12:23;;;;;;;;;;;26.90;43.80;;;26.13;45.55;101205.25;12239279;19;19926;-85
2023/06/28 17:16:24;;;;;;;;;;;26.90;44.00;;;26.10;45.51;101199.41;12245185;19;20366;-85
2023/06/28 17:20:26;;;;;;;;;;;26.90;44.20;;;26.15;45.46;101208.59;12243756;19;19915;-85
2023/06/28 17:24:28;;;;;;;;;;;26.90;44.10;;;25.99;45.43;101177.38;12241926;19;19939;-84
2023/06/28 17:28:29;;;;;;;;;;;26.90;43.90;;;26.07;45.91;101194.41;12245656;19;19926;-85
2023/06/28 17:32:31;;;;;;;;;;;26.90;44.00;;;26.05;45.43;101208.78;12240792;19;19923;-85
2023/06/28 17:36:33;;;;;;;;;;;26.90;44.00;;;26.13;45.77;101215.94;12242397;19;19919;-85
2023/06/28 17:40:34;;;;;;;;;;;26.90;44.00;;;26.09;45.38;101208.47;12245308;19;19923;-85
2023/06/28 17:44:36;;;;;;;;;;;26.90;44.00;;;26.12;45.38;101213.47;12237264;19;19939;-85
2023/06/28 17:48:38;;;;;;;;;;;26.90;44.00;;;26.08;45.74;101206.78;12244261;19;19990;-85
2023/06/28 17:52:39;;;;;;;;;;;26.90;44.10;;;26.02;45.72;101195.75;12240387;19;19915;-85
2023/06/28 17:56:40;;;;;;;;;;;26.90;44.10;;;26.08;45.44;101206.78;12246715;19;19943;-85
2023/06/28 18:00:42;;;;;;;;;;;26.80;44.10;;;26.08;45.39;101207.59;12255962;19;19919;-84
2023/06/28 18:04:43;;;;;;;;;;;26.80;44.10;;;26.09;45.34;101216.50;12250135;19;19929;-85
2023/06/28 18:08:46;;;;;;;;;;;26.90;44.20;;;26.07;45.25;101211.31;12253001;19;20352;-85